Bialystok, Poland
Current Conditions -  °F | °C
As of 7:20 AM on Wednesday 26 Nov 2014 (Local Time) from UMMG Reporting Station
Moderate Fog Moderate Fog  
Wind Chill: 20°   Ceiling: 200
Heat Index: 28°   Visibility: 0.56mi
Dew Point: 28°   Wind: 9mph
Humidity: 100%   Direction: 150°SSE
Pressure: 30.36"   Gusts: NA
Location:  53.14°N, 23.16°E
Report Text: UMMG 260520Z 15004MPS 0900 R17/1800 FZFG VV002 M02/M02 Q1028 NOSIGRMK QBB070
Loading
Personal Weather Stations






























Interactive Weather Map New forecast layout! Learn more

10-Day Weather Forecast

Advertisements
Track Severe Weather on mobile